Kentwood, Louisiana
Current Conditions -  °F | °C
As of 10:53 AM on Thursday 30 Oct 2014 (Local Time) from KMCB Reporting Station
Clear Clear  
Wind Chill: 66°   Ceiling: Unl
Heat Index: 66°   Visibility: 10mi
Dew Point: 40°   Wind: 8mph
Humidity: 38%   Direction: 70°ENE
Pressure: 30.15"   Gusts: NA
Location:  30.94°N, 90.51°W
Report Text: KMCB 301553Z AUTO 07007KT 040V110 10SM CLR 19/04 A3015 RMK AO2 SLP208 T01890044
Loading
Personal Weather Stations






























Interactive Weather Map
Tropical Storm Tracking
New forecast layout! Learn more

10-Day Weather Forecast

Advertisements
Track Severe Weather on mobile